createdAt,value
2023-11-19T00:00:15.567Z,99033.84
2023-11-19T00:02:43.556Z,99045.91
2023-11-19T00:05:13.072Z,99039.94
2023-11-19T00:07:44.678Z,99030.44
2023-11-19T00:10:13.385Z,99045.97
2023-11-19T00:12:45.618Z,99032.19
2023-11-19T00:15:13.335Z,99014.94
2023-11-19T00:17:45.996Z,99007.22
2023-11-19T00:20:13.847Z,99009.81
2023-11-19T00:22:49.231Z,99011.59
2023-11-19T00:25:16.737Z,99008.31
2023-11-19T00:27:45.985Z,99012.56
2023-11-19T00:30:14.632Z,99000.50
2023-11-19T00:32:42.262Z,99016.06
2023-11-19T00:35:11.223Z,98999.66
2023-11-19T00:37:38.018Z,99012.59
2023-11-19T00:40:06.834Z,99018.69
2023-11-19T00:42:33.679Z,99009.16
2023-11-19T00:45:00.347Z,99023.00
2023-11-19T00:47:27.095Z,99022.22
2023-11-19T00:49:53.721Z,99024.78
2023-11-19T00:52:20.657Z,99011.81
2023-11-19T00:54:47.298Z,99023.91
2023-11-19T00:57:13.867Z,99016.19
2023-11-19T00:59:43.524Z,99010.13
2023-11-19T01:02:10.507Z,99001.56
2023-11-19T01:04:37.885Z,99013.59
2023-11-19T01:07:06.194Z,99009.31
2023-11-19T01:09:36.083Z,99005.88
2023-11-19T01:12:03.798Z,99008.47
2023-11-19T01:14:30.601Z,99006.78
2023-11-19T01:16:57.459Z,99000.78
2023-11-19T01:19:24.438Z,99001.63
2023-11-19T01:21:52.397Z,99005.97
2023-11-19T01:24:19.178Z,98990.50
2023-11-19T01:26:46.830Z,98989.59
2023-11-19T01:29:16.382Z,98994.81
2023-11-19T01:31:44.976Z,98995.72
2023-11-19T01:34:13.138Z,98996.50
2023-11-19T01:36:40.789Z,98997.38
2023-11-19T01:39:08.245Z,98996.59
2023-11-19T01:41:37.746Z,99006.94
2023-11-19T01:44:07.332Z,99012.97
2023-11-19T01:46:36.245Z,99006.94
2023-11-19T01:49:04.511Z,99017.34
2023-11-19T01:51:32.695Z,99014.72
2023-11-19T01:54:00.793Z,99025.88
2023-11-19T01:56:28.810Z,99018.97
2023-11-19T01:58:57.550Z,99010.31
2023-11-19T02:01:25.531Z,99009.53
2023-11-19T02:03:54.000Z,99000.88
2023-11-19T02:06:21.218Z,99005.22
2023-11-19T02:08:48.090Z,99008.72
2023-11-19T02:11:14.726Z,99006.94
2023-11-19T02:13:42.781Z,98998.28
2023-11-19T02:16:12.180Z,99008.59
2023-11-19T02:18:39.483Z,99011.16
2023-11-19T02:21:06.685Z,99010.22
2023-11-19T02:23:33.973Z,99008.44
2023-11-19T02:28:38.203Z,98998.75
2023-11-19T02:31:06.310Z,98997.81
2023-11-19T02:33:32.972Z,98997.75
2023-11-19T02:35:59.718Z,99004.59
2023-11-19T02:38:26.940Z,98992.50
2023-11-19T02:40:53.582Z,98990.84
2023-11-19T02:43:20.485Z,98988.13
2023-11-19T02:45:47.362Z,98987.25
2023-11-19T02:48:15.623Z,98979.53
2023-11-19T02:50:43.347Z,98979.50
2023-11-19T02:53:10.028Z,98972.50
2023-11-19T02:55:39.332Z,98965.59
2023-11-19T02:58:20.587Z,98969.78
2023-11-19T03:00:58.248Z,98968.00
2023-11-19T03:03:30.035Z,98965.38
2023-11-19T03:05:57.024Z,98962.88
2023-11-19T03:08:24.011Z,98971.44
2023-11-19T03:10:50.825Z,98967.06
2023-11-19T03:13:19.119Z,98965.38
2023-11-19T03:15:46.140Z,98967.94
2023-11-19T03:18:12.821Z,98964.47
2023-11-19T03:20:39.539Z,98961.00
2023-11-19T03:23:07.277Z,98954.16
2023-11-19T03:25:35.356Z,98955.06
2023-11-19T03:28:03.526Z,98974.16
2023-11-19T03:33:02.622Z,98961.25
2023-11-19T03:35:30.194Z,98953.47
2023-11-19T03:37:57.184Z,98950.09
2023-11-19T03:40:25.265Z,98950.84
2023-11-19T03:42:52.183Z,98949.09
2023-11-19T03:45:18.863Z,98945.63
2023-11-19T03:47:45.501Z,98947.28
2023-11-19T03:50:12.147Z,98946.44
2023-11-19T03:55:09.874Z,98935.16
2023-11-19T03:57:36.850Z,98936.88
2023-11-19T04:00:11.013Z,98935.00
2023-11-19T04:02:38.363Z,98926.38
2023-11-19T04:05:06.353Z,98931.63
2023-11-19T04:07:33.290Z,98929.13
2023-11-19T04:10:00.482Z,98930.00
2023-11-19T04:12:27.230Z,98935.09
2023-11-19T04:17:24.322Z,98938.50
2023-11-19T04:19:51.336Z,98931.56
2023-11-19T04:22:18.313Z,98935.81
2023-11-19T04:24:46.843Z,98957.47
2023-11-19T04:27:13.808Z,98943.63
2023-11-19T04:29:40.538Z,98959.22
2023-11-19T04:32:07.482Z,98954.97
2023-11-19T04:34:34.288Z,98951.47
2023-11-19T04:39:34.113Z,98952.53
2023-11-19T04:42:00.682Z,98952.63
2023-11-19T04:44:27.214Z,98956.16
2023-11-19T04:46:53.954Z,98949.41
2023-11-19T04:49:20.730Z,98963.19
2023-11-19T04:51:49.077Z,98961.50
2023-11-19T04:54:15.682Z,98951.22
2023-11-19T04:56:46.686Z,98949.63
2023-11-19T04:59:13.238Z,98943.59
2023-11-19T05:01:39.859Z,98941.13
2023-11-19T05:04:08.680Z,98955.03
2023-11-19T05:06:36.378Z,98940.31
2023-11-19T05:09:08.315Z,98955.91
2023-11-19T05:11:35.675Z,98956.75
2023-11-19T05:14:05.617Z,98963.72
2023-11-19T05:16:33.110Z,98955.09
2023-11-19T05:18:59.934Z,98952.56
2023-11-19T05:21:26.598Z,98945.66
2023-11-19T05:23:53.172Z,98938.75
2023-11-19T05:26:22.368Z,98948.22
2023-11-19T05:28:49.929Z,98945.75
2023-11-19T05:31:18.204Z,98941.28
2023-11-19T05:33:45.156Z,98933.47
2023-11-19T05:36:13.892Z,98937.78
2023-11-19T05:38:40.993Z,98941.22
2023-11-19T05:41:08.170Z,98930.00
2023-11-19T05:43:35.065Z,98937.84
2023-11-19T05:46:02.768Z,98946.50
2023-11-19T05:48:30.084Z,98959.44
2023-11-19T05:50:56.810Z,98968.13
2023-11-19T05:53:23.467Z,98961.19
2023-11-19T05:55:55.990Z,98954.25
2023-11-19T05:58:29.638Z,98943.94
2023-11-19T06:00:57.380Z,98960.41
2023-11-19T06:03:24.769Z,98958.81
2023-11-19T06:05:51.687Z,98960.50
2023-11-19T06:08:18.499Z,98957.97
2023-11-19T06:10:51.692Z,98964.09
2023-11-19T06:13:18.345Z,98964.97
2023-11-19T06:15:45.405Z,98960.69
2023-11-19T06:18:13.713Z,98958.13
2023-11-19T06:20:44.219Z,98969.34
2023-11-19T06:23:11.031Z,98979.59
2023-11-19T06:25:37.883Z,98969.25
2023-11-19T06:28:05.638Z,98976.91
2023-11-19T06:30:33.964Z,98982.03
2023-11-19T06:33:01.605Z,98978.59
2023-11-19T06:35:30.311Z,98982.84
2023-11-19T06:37:57.278Z,98986.31
2023-11-19T06:40:23.977Z,98987.28
2023-11-19T06:42:50.655Z,98982.97
2023-11-19T06:45:17.297Z,98983.84
2023-11-19T06:47:44.049Z,98978.66
2023-11-19T06:50:10.899Z,98976.94
2023-11-19T06:52:38.513Z,98982.97
2023-11-19T06:55:09.318Z,98977.75
2023-11-19T06:57:36.319Z,98978.56
2023-11-19T07:00:03.588Z,98979.41
2023-11-19T07:02:30.336Z,98987.97
2023-11-19T07:04:57.017Z,98983.63
2023-11-19T07:07:23.712Z,98979.31
2023-11-19T07:09:51.239Z,98983.66
2023-11-19T07:12:17.825Z,98980.25
2023-11-19T07:14:44.445Z,98967.31
2023-11-19T07:17:11.487Z,98977.75
2023-11-19T07:19:39.740Z,98970.06
2023-11-19T07:22:08.054Z,98963.22
2023-11-19T07:24:34.828Z,98972.72
2023-11-19T07:27:01.965Z,98975.38
2023-11-19T07:29:29.736Z,98977.13
2023-11-19T07:31:57.534Z,98976.25
2023-11-19T07:34:25.951Z,98971.13
2023-11-19T07:36:53.266Z,98979.78
2023-11-19T07:39:21.933Z,98974.66
2023-11-19T07:41:48.650Z,98971.28
2023-11-19T07:44:15.922Z,98971.31
2023-11-19T07:46:43.510Z,98969.53
2023-11-19T07:49:11.451Z,98979.88
2023-11-19T07:51:38.495Z,98983.31
2023-11-19T07:54:05.663Z,98971.19
2023-11-19T07:56:35.761Z,98982.38
2023-11-19T07:59:02.887Z,98985.94
2023-11-19T08:01:29.732Z,98981.50
2023-11-19T08:04:00.185Z,98984.88
2023-11-19T08:06:27.410Z,98989.13
2023-11-19T08:08:54.303Z,98990.81
2023-11-19T08:11:21.419Z,98985.66
2023-11-19T08:13:48.535Z,98988.22
2023-11-19T08:16:16.352Z,98981.22
2023-11-19T08:18:44.620Z,98987.19
2023-11-19T08:21:11.725Z,98987.94
2023-11-19T08:23:39.327Z,98972.22
2023-11-19T08:26:06.971Z,98976.31
2023-11-19T08:28:35.745Z,98980.38
2023-11-19T08:31:05.446Z,98983.56
2023-11-19T08:33:32.391Z,98989.28
2023-11-19T08:35:59.714Z,98991.63
2023-11-19T08:41:00.956Z,98989.84
2023-11-19T08:43:28.234Z,98990.78
2023-11-19T08:45:55.242Z,98980.34
2023-11-19T08:48:22.035Z,98997.56
2023-11-19T08:50:49.211Z,98987.88
2023-11-19T08:53:16.384Z,99005.81
2023-11-19T08:55:43.212Z,98992.88
2023-11-19T08:58:10.088Z,98991.16
2023-11-19T09:00:36.928Z,98993.75
2023-11-19T09:03:04.673Z,98991.19
2023-11-19T09:05:31.776Z,98999.81
2023-11-19T09:07:58.397Z,99002.41
2023-11-19T09:10:25.083Z,99002.44
2023-11-19T09:12:51.667Z,99010.25
2023-11-19T09:15:18.382Z,99001.59
2023-11-19T09:17:45.057Z,99001.56
2023-11-19T09:20:15.948Z,99008.63
2023-11-19T09:22:43.158Z,98997.44
2023-11-19T09:25:10.344Z,99000.06
2023-11-19T09:27:36.894Z,98996.78
2023-11-19T09:30:05.058Z,98997.66
2023-11-19T09:32:31.992Z,98995.91
2023-11-19T09:34:58.817Z,98997.63
2023-11-19T09:37:25.417Z,98984.69
2023-11-19T09:39:52.018Z,98989.84
2023-11-19T09:42:19.156Z,98981.22
2023-11-19T09:44:46.306Z,98989.91
2023-11-19T09:47:15.080Z,98983.91
2023-11-19T09:49:42.307Z,98982.19
2023-11-19T09:52:09.036Z,98980.41
2023-11-19T09:54:35.921Z,98979.50
2023-11-19T09:57:05.355Z,98979.44
2023-11-19T09:59:33.240Z,98982.81
2023-11-19T10:02:00.880Z,98980.19
2023-11-19T10:04:31.342Z,98979.28
2023-11-19T10:06:58.432Z,98983.59
2023-11-19T10:09:25.192Z,98983.50
2023-11-19T10:11:51.903Z,98983.50
2023-11-19T10:14:24.126Z,98979.91
2023-11-19T10:16:50.743Z,98979.81
2023-11-19T10:19:21.941Z,98974.53
2023-11-19T10:21:48.972Z,98975.28
2023-11-19T10:24:30.103Z,98978.63
2023-11-19T10:26:58.573Z,98976.84
2023-11-19T10:29:25.529Z,98961.22
2023-11-19T10:32:23.808Z,98962.84
2023-11-19T10:34:46.867Z,98948.59
2023-11-19T10:37:33.054Z,98949.22
2023-11-19T10:39:59.770Z,98948.03
2023-11-19T10:42:26.575Z,98953.16
2023-11-19T10:44:53.300Z,98949.53
2023-11-19T10:47:37.717Z,98947.75
2023-11-19T10:50:07.450Z,98939.06
2023-11-19T10:52:34.959Z,98944.19
2023-11-19T10:55:03.629Z,98942.38
2023-11-19T10:57:34.267Z,98938.78
2023-11-19T11:00:03.580Z,98937.81
2023-11-19T11:02:35.784Z,98928.19
2023-11-19T11:05:04.228Z,98921.09
2023-11-19T11:07:39.712Z,98940.28
2023-11-19T11:10:10.720Z,98932.47
2023-11-19T11:12:39.319Z,98935.06
2023-11-19T11:15:08.149Z,98929.88
2023-11-19T11:17:35.740Z,98920.31
2023-11-19T11:20:04.131Z,98915.84
2023-11-19T11:22:44.343Z,98920.75
2023-11-19T11:25:50.804Z,98918.91
2023-11-19T11:31:16.361Z,98904.84
2023-11-19T11:34:07.413Z,98897.75
2023-11-19T11:36:48.181Z,98900.38
2023-11-19T11:39:16.249Z,98899.56
2023-11-19T11:41:42.869Z,98893.44
2023-11-19T11:44:10.128Z,98891.56
2023-11-19T11:49:13.743Z,98892.38
2023-11-19T11:57:19.293Z,98885.88
2023-11-19T12:02:23.528Z,98877.16
2023-11-19T12:04:52.562Z,98878.09
2023-11-19T12:07:23.548Z,98878.97
2023-11-19T12:09:55.728Z,98878.00
2023-11-19T12:12:23.808Z,98874.50
2023-11-19T12:15:11.158Z,98869.59
2023-11-19T12:17:41.982Z,98866.97
2023-11-19T12:20:10.299Z,98871.22
2023-11-19T12:22:39.694Z,98869.50
2023-11-19T12:25:08.132Z,98870.34
2023-11-19T12:27:35.915Z,98864.06
2023-11-19T12:30:07.365Z,98861.41
2023-11-19T12:32:44.175Z,98850.13
2023-11-19T12:35:12.942Z,98850.16
2023-11-19T12:37:57.843Z,98850.19
2023-11-19T12:40:26.194Z,98851.84
2023-11-19T12:42:54.721Z,98838.84
2023-11-19T12:45:22.893Z,98842.19
2023-11-19T12:47:50.708Z,98856.63
2023-11-19T12:50:20.220Z,98854.81
2023-11-19T12:53:02.553Z,98844.50
2023-11-19T12:55:31.401Z,98846.03
2023-11-19T12:58:00.342Z,98852.16
2023-11-19T13:00:28.674Z,98849.78
2023-11-19T13:02:57.519Z,98845.25
2023-11-19T13:10:57.621Z,98826.19
2023-11-19T13:13:24.193Z,98836.38
2023-11-19T13:15:50.942Z,98844.00
2023-11-19T13:18:17.981Z,98833.59
2023-11-19T13:20:44.887Z,98842.31
2023-11-19T13:23:11.762Z,98844.31
2023-11-19T13:25:38.343Z,98837.38
2023-11-19T13:28:05.156Z,98845.38
2023-11-19T13:30:40.586Z,98848.97
2023-11-19T13:33:07.319Z,98843.78
2023-11-19T13:35:34.094Z,98840.44
2023-11-19T13:38:00.791Z,98847.41
2023-11-19T13:40:27.967Z,98851.63
2023-11-19T13:42:54.694Z,98846.41
2023-11-19T13:45:22.204Z,98852.75
2023-11-19T13:47:49.200Z,98850.03
2023-11-19T13:50:18.136Z,98851.94
2023-11-19T13:52:47.330Z,98847.50
2023-11-19T13:55:14.817Z,98844.91
2023-11-19T13:57:43.202Z,98842.41
2023-11-19T14:00:14.524Z,98836.34
2023-11-19T14:02:42.359Z,98842.28
2023-11-19T14:05:10.426Z,98843.88
2023-11-19T14:07:37.260Z,98850.84
2023-11-19T14:10:04.394Z,98843.03
2023-11-19T14:12:31.600Z,98838.03
2023-11-19T14:14:58.210Z,98834.63
2023-11-19T14:17:26.185Z,98835.47
2023-11-19T14:19:53.179Z,98841.50
2023-11-19T14:22:19.843Z,98839.72
2023-11-19T14:24:46.471Z,98838.88
2023-11-19T14:27:13.330Z,98840.66
2023-11-19T14:29:41.446Z,98836.34
2023-11-19T14:32:08.243Z,98851.16
2023-11-19T14:34:35.037Z,98852.09
2023-11-19T14:37:01.937Z,98853.81
2023-11-19T14:39:30.590Z,98849.47
2023-11-19T14:41:59.635Z,98838.22
2023-11-19T14:44:26.310Z,98839.81
2023-11-19T14:46:53.177Z,98843.41
2023-11-19T14:49:19.879Z,98847.59
2023-11-19T14:51:48.916Z,98847.56
2023-11-19T14:54:17.061Z,98852.75
2023-11-19T14:56:44.002Z,98846.72
2023-11-19T14:59:10.694Z,98853.72
2023-11-19T15:01:37.527Z,98853.72
2023-11-19T15:04:06.617Z,98857.31
2023-11-19T15:06:35.033Z,98866.06
2023-11-19T15:09:02.455Z,98854.81
2023-11-19T15:11:29.078Z,98862.59
2023-11-19T15:13:55.794Z,98860.91
2023-11-19T15:16:32.354Z,98868.81
2023-11-19T15:19:06.903Z,98874.03
2023-11-19T15:21:33.798Z,98877.44
2023-11-19T15:24:00.745Z,98874.81
2023-11-19T15:26:27.508Z,98887.88
2023-11-19T15:28:58.888Z,98890.38
2023-11-19T15:31:25.652Z,98886.16
2023-11-19T15:33:52.901Z,98894.78
2023-11-19T15:36:19.676Z,98895.69
2023-11-19T15:41:16.414Z,98907.66
2023-11-19T15:43:43.104Z,98907.66
2023-11-19T15:46:10.751Z,98910.31
2023-11-19T15:48:37.905Z,98907.75
2023-11-19T15:51:05.160Z,98900.00
2023-11-19T15:53:32.265Z,98915.56
2023-11-19T15:55:59.549Z,98918.13
2023-11-19T15:58:26.467Z,98920.56
2023-11-19T16:00:53.132Z,98928.38
2023-11-19T16:03:19.883Z,98930.06
2023-11-19T16:05:47.923Z,98933.56
2023-11-19T16:08:17.126Z,98931.88
2023-11-19T16:10:45.076Z,98945.66
2023-11-19T16:13:11.695Z,98938.84
2023-11-19T16:15:38.799Z,98950.00
2023-11-19T16:18:05.925Z,98947.47
2023-11-19T16:20:35.168Z,98956.13
2023-11-19T16:23:02.546Z,98952.78
2023-11-19T16:25:29.140Z,98964.19
2023-11-19T16:27:57.028Z,98954.63
2023-11-19T16:30:23.915Z,98965.19
2023-11-19T16:32:58.095Z,98958.06
2023-11-19T16:35:24.874Z,98963.31
2023-11-19T16:37:51.915Z,98964.31
2023-11-19T16:40:18.933Z,98961.00
2023-11-19T16:42:47.664Z,98966.22
2023-11-19T16:45:15.009Z,98972.28
2023-11-19T16:47:42.133Z,98980.88
2023-11-19T16:50:09.201Z,98980.88
2023-11-19T16:52:36.888Z,98992.09
2023-11-19T16:55:07.143Z,98992.13
2023-11-19T16:57:33.855Z,99003.47
2023-11-19T17:00:00.436Z,99008.75
2023-11-19T17:02:27.252Z,99020.91
2023-11-19T17:04:53.964Z,99027.72
2023-11-19T17:07:20.596Z,99031.19
2023-11-19T17:09:47.923Z,99026.88
2023-11-19T17:12:14.628Z,99038.09
2023-11-19T17:14:41.418Z,99029.53
2023-11-19T17:17:08.182Z,99041.59
2023-11-19T17:19:34.902Z,99053.69
2023-11-19T17:22:01.615Z,99055.50
2023-11-19T17:24:28.216Z,99049.66
2023-11-19T17:26:54.947Z,99060.84
2023-11-19T17:29:23.007Z,99066.88
2023-11-19T17:31:49.797Z,99066.13
2023-11-19T17:34:16.453Z,99071.22
2023-11-19T17:36:43.171Z,99075.50
2023-11-19T17:39:09.942Z,99078.06
2023-11-19T17:41:36.687Z,99074.56
2023-11-19T17:44:03.398Z,99080.66
2023-11-19T17:46:30.219Z,99080.66
2023-11-19T17:48:56.970Z,99080.69
2023-11-19T17:51:23.926Z,99085.88
2023-11-19T17:53:50.778Z,99092.88
2023-11-19T17:56:17.507Z,99097.22
2023-11-19T17:58:44.399Z,99104.09
2023-11-19T18:01:12.436Z,99103.31
2023-11-19T18:03:39.492Z,99111.16
2023-11-19T18:06:07.514Z,99112.91
2023-11-19T18:08:34.382Z,99114.66
2023-11-19T18:11:01.191Z,99118.13
2023-11-19T18:13:27.848Z,99118.97
2023-11-19T18:15:55.033Z,99120.81
2023-11-19T18:18:22.876Z,99125.13
2023-11-19T18:20:49.816Z,99133.72
2023-11-19T18:23:16.740Z,99133.81
2023-11-19T18:25:43.472Z,99130.31
2023-11-19T18:28:10.145Z,99131.25
2023-11-19T18:30:36.956Z,99133.81
2023-11-19T18:33:04.125Z,99134.78
2023-11-19T18:35:31.128Z,99142.59
2023-11-19T18:37:57.857Z,99140.81
2023-11-19T18:40:25.596Z,99146.16
2023-11-19T18:42:54.784Z,99144.38
2023-11-19T18:45:23.843Z,99151.44
2023-11-19T18:47:52.567Z,99157.56
2023-11-19T18:50:20.437Z,99163.56
2023-11-19T18:52:47.889Z,99167.13
2023-11-19T18:55:14.771Z,99169.75
2023-11-19T18:57:42.648Z,99174.03
2023-11-19T19:00:11.457Z,99181.00
2023-11-19T19:02:39.596Z,99181.97
2023-11-19T19:05:07.072Z,99184.56
2023-11-19T19:07:34.414Z,99194.06
2023-11-19T19:10:03.158Z,99193.25
2023-11-19T19:12:29.835Z,99201.06
2023-11-19T19:15:16.510Z,99203.63
2023-11-19T19:17:45.548Z,99205.53
2023-11-19T19:20:13.138Z,99206.34
2023-11-19T19:22:41.446Z,99210.88
2023-11-19T19:25:08.936Z,99206.50
2023-11-19T19:27:35.898Z,99206.66
2023-11-19T19:30:02.573Z,99205.63
2023-11-19T19:32:29.306Z,99207.47
2023-11-19T19:34:56.137Z,99208.38
2023-11-19T19:37:24.459Z,99211.84
2023-11-19T19:39:52.064Z,99210.97
2023-11-19T19:42:18.877Z,99215.38
2023-11-19T19:44:46.349Z,99221.41
2023-11-19T19:47:13.222Z,99218.97
2023-11-19T19:49:40.037Z,99219.78
2023-11-19T19:52:07.165Z,99210.31
2023-11-19T19:54:35.381Z,99221.63
2023-11-19T19:57:02.246Z,99230.25
2023-11-19T19:59:31.746Z,99232.91
2023-11-19T20:02:00.046Z,99235.44
2023-11-19T20:04:27.065Z,99245.81
2023-11-19T20:06:54.149Z,99243.25
2023-11-19T20:09:20.899Z,99243.38
2023-11-19T20:11:49.168Z,99256.38
2023-11-19T20:14:15.842Z,99253.03
2023-11-19T20:16:43.122Z,99260.69
2023-11-19T20:19:09.843Z,99265.13
2023-11-19T20:21:37.725Z,99265.06
2023-11-19T20:24:05.042Z,99271.16
2023-11-19T20:26:31.966Z,99269.41
2023-11-19T20:31:28.338Z,99275.50
2023-11-19T20:33:55.104Z,99278.97
2023-11-19T20:36:23.268Z,99278.97
2023-11-19T20:38:52.184Z,99289.34
2023-11-19T20:41:19.732Z,99266.03
2023-11-19T20:43:46.712Z,99267.81
2023-11-19T20:46:15.518Z,99282.50
2023-11-19T20:48:42.584Z,99263.50
2023-11-19T20:51:09.248Z,99270.53
2023-11-19T20:53:35.993Z,99279.22
2023-11-19T20:56:04.301Z,99281.03
2023-11-19T20:58:31.174Z,99282.81
2023-11-19T21:00:57.893Z,99282.91
2023-11-19T21:03:24.935Z,99290.78
2023-11-19T21:05:55.505Z,99293.38
2023-11-19T21:08:24.133Z,99300.34
2023-11-19T21:10:52.604Z,99296.03
2023-11-19T21:13:21.660Z,99302.94
2023-11-19T21:15:56.511Z,99303.75
2023-11-19T21:18:25.663Z,99302.94
2023-11-19T21:20:52.301Z,99298.56
2023-11-19T21:23:22.231Z,99309.09
2023-11-19T21:25:49.368Z,99307.31
2023-11-19T21:28:16.039Z,99309.03
2023-11-19T21:30:42.984Z,99309.03
2023-11-19T21:33:09.849Z,99316.88
2023-11-19T21:35:38.783Z,99321.16
2023-11-19T21:38:05.829Z,99320.41
2023-11-19T21:40:32.997Z,99323.09
2023-11-19T21:43:00.941Z,99337.00
2023-11-19T21:45:27.763Z,99322.38
2023-11-19T21:47:54.535Z,99327.59
2023-11-19T21:50:24.341Z,99325.03
2023-11-19T21:52:51.542Z,99325.13
2023-11-19T21:55:18.454Z,99319.06
2023-11-19T21:57:45.335Z,99319.16
2023-11-19T22:00:16.503Z,99320.03
2023-11-19T22:02:43.641Z,99320.06
2023-11-19T22:05:10.508Z,99316.66
2023-11-19T22:07:37.928Z,99313.28
2023-11-19T22:10:05.423Z,99317.59
2023-11-19T22:12:32.246Z,99320.22
2023-11-19T22:14:58.834Z,99318.56
2023-11-19T22:17:25.492Z,99327.19
2023-11-19T22:19:52.436Z,99326.38
2023-11-19T22:22:19.237Z,99320.34
2023-11-19T22:24:46.389Z,99323.91
2023-11-19T22:27:13.247Z,99320.44
2023-11-19T22:29:39.909Z,99322.19
2023-11-19T22:32:07.193Z,99312.69
2023-11-19T22:34:33.998Z,99313.66
2023-11-19T22:37:00.676Z,99315.38
2023-11-19T22:39:27.402Z,99310.34
2023-11-19T22:41:54.209Z,99324.97
2023-11-19T22:44:20.927Z,99327.59
2023-11-19T22:46:47.623Z,99327.66
2023-11-19T22:49:14.385Z,99332.84
2023-11-19T22:51:41.165Z,99329.47
2023-11-19T22:54:07.828Z,99330.41
2023-11-19T22:56:43.716Z,99322.72
2023-11-19T22:59:10.556Z,99333.09
2023-11-19T23:01:38.089Z,99329.69
2023-11-19T23:04:05.672Z,99331.53
2023-11-19T23:06:32.550Z,99335.03
2023-11-19T23:08:59.343Z,99335.06
2023-11-19T23:11:26.042Z,99338.56
2023-11-19T23:13:52.779Z,99338.59
2023-11-19T23:16:21.763Z,99339.50
2023-11-19T23:18:48.551Z,99340.41
2023-11-19T23:21:15.532Z,99337.91
2023-11-19T23:23:42.322Z,99331.88
2023-11-19T23:26:08.950Z,99341.41
2023-11-19T23:28:35.716Z,99336.28
2023-11-19T23:31:02.550Z,99334.59
2023-11-19T23:33:29.443Z,99327.75
2023-11-19T23:35:58.131Z,99333.84
2023-11-19T23:38:25.082Z,99337.31
2023-11-19T23:40:51.898Z,99344.19
2023-11-19T23:43:18.582Z,99347.66
2023-11-19T23:45:45.494Z,99354.53
2023-11-19T23:48:12.398Z,99354.53
2023-11-19T23:50:59.687Z,99345.84
2023-11-19T23:53:26.368Z,99350.13
2023-11-19T23:55:53.140Z,99346.59
2023-11-19T23:58:20.168Z,99347.38
